Time;durP1;ratioP1;P1;durP2;ratioP2;P2;SDS_P1;SDS_P2;PMS_P1;PMS_P2;Temp;Humidity;BMP_temperature;BMP_pressure;BME280_temperature;BME280_humidity;BME280_pressure;Samples;Min_cycle;Max_cycle;Signal;HPM_P1;HPM_P2
2023/08/14 00:00:39;;;;;;;5.93;1.85;;;20.10;64.80;;;;;;6156783;23;20239;-69
2023/08/14 00:03:07;;;;;;;4.70;1.70;;;20.10;64.90;;;;;;6156208;23;20193;-70
2023/08/14 00:05:54;;;;;;;;;;;;;;;;;;;;;
2023/08/14 00:08:53;;;;;;;3.42;2.00;;;20.10;65.00;;;;;;6065749;23;20560;-70
2023/08/14 02:22:43;;;;;;;6.60;1.90;;;20.10;67.10;;;;;;5898664;24;20172;-69
2023/08/14 02:31:47;;;;;;;6.63;1.60;;;20.10;67.20;;;;;;5940742;23;20267;-69
2023/08/14 02:48:23;;;;;;;7.90;2.20;;;20.10;67.30;;;;;;6034650;23;20204;-69
2023/08/14 02:50:53;;;;;;;9.43;2.00;;;20.10;67.40;;;;;;6032382;23;20249;-69
2023/08/14 02:53:20;;;;;;;6.18;2.33;;;20.00;67.30;;;;;;6035743;23;20680;-69
2023/08/14 02:58:50;;;;;;;9.77;1.90;;;20.10;67.50;;;;;;6146799;23;20289;-69
2023/08/14 03:01:17;;;;;;;5.15;1.88;;;20.10;67.50;;;;;;6154718;23;20162;-69
2023/08/14 03:03:54;;;;;;;5.28;2.00;;;20.10;67.50;;;;;;6154588;23;20208;-69
2023/08/14 03:06:21;;;;;;;7.50;2.00;;;20.10;67.60;;;;;;6154440;23;20193;-69
2023/08/14 03:08:50;;;;;;;13.95;2.10;;;20.10;67.50;;;;;;6154756;23;20200;-66
2023/08/14 03:13:58;;;;;;;11.15;2.17;;;20.00;67.50;;;;;;6140430;23;20569;-69
2023/08/14 03:34:15;;;;;;;;;;;;;;;;;;;;;
2023/08/14 03:45:51;;;;;;;10.05;2.08;;;20.10;68.40;;;;;;6153903;23;20555;-70
2023/08/14 03:48:18;;;;;;;10.70;2.45;;;20.10;68.30;;;;;;6156712;23;20276;-70
2023/08/14 03:50:47;;;;;;;7.00;2.00;;;20.10;68.40;;;;;;6156729;23;20170;-70
2023/08/14 03:53:15;;;;;;;8.20;2.10;;;20.10;68.40;;;;;;6156614;23;20194;-70
2023/08/14 03:55:42;;;;;;;9.57;2.40;;;20.10;68.40;;;;;;6157170;23;20177;-70
2023/08/14 03:58:16;;;;;;;8.80;2.47;;;20.00;68.40;;;;;;6156420;23;20194;-70
2023/08/14 04:00:53;;;;;;;;;;;;;;;;;;;;;
2023/08/14 04:40:42;;;;;;;11.90;2.40;;;20.00;68.90;;;;;;5736332;24;20636;-70
2023/08/14 05:00:26;;;;;;;8.93;2.22;;;20.00;69.10;;;;;;5817219;24;20194;-69
2023/08/14 05:06:57;;;;;;;7.95;2.08;;;20.00;69.20;;;;;;5870045;24;20275;-70
2023/08/14 05:12:18;;;;;;;10.43;2.50;;;20.00;69.30;;;;;;5857910;24;20250;-70
2023/08/14 05:14:45;;;;;;;7.22;2.50;;;20.00;69.30;;;;;;5825854;24;20248;-70
2023/08/14 05:17:12;;;;;;;8.40;2.08;;;20.00;69.30;;;;;;5985779;23;20202;-70
2023/08/14 05:19:40;;;;;;;7.75;2.47;;;20.00;69.30;;;;;;6126290;23;20251;-70
2023/08/14 05:22:07;;;;;;;8.20;2.30;;;20.00;69.40;;;;;;6125949;23;20163;-70
2023/08/14 05:24:57;;;;;;;10.05;2.22;;;20.00;69.40;;;;;;6125775;23;20204;-70
2023/08/14 05:34:17;;;;;;;8.45;2.45;;;20.00;69.60;;;;;;6007813;23;20223;-60
2023/08/14 06:22:17;;;;;;;8.02;2.30;;;20.00;70.10;;;;;;6151440;23;20218;-71
2023/08/14 06:24:47;;;;;;;8.93;2.60;;;20.00;70.20;;;;;;6155189;23;20264;-71
2023/08/14 06:27:45;;;;;;;10.05;2.38;;;20.00;70.20;;;;;;6079208;23;20283;-71
2023/08/14 06:30:14;;;;;;;7.38;2.30;;;20.00;70.30;;;;;;6064376;23;20250;-71
2023/08/14 06:32:43;;;;;;;9.80;2.45;;;20.00;70.20;;;;;;6064498;23;20204;-68
2023/08/14 06:35:10;;;;;;;10.40;2.40;;;20.00;70.20;;;;;;6064334;23;20168;-71
2023/08/14 06:46:52;;;;;;;8.07;2.40;;;20.00;70.30;;;;;;6033691;23;20214;-70
2023/08/14 07:07:24;;;;;;;7.85;2.47;;;20.00;71.00;;;;;;5909007;23;20235;-71
2023/08/14 07:10:01;;;;;;;10.80;2.50;;;20.00;70.70;;;;;;6064342;23;20515;-60
2023/08/14 07:22:57;;;;;;;8.98;2.58;;;20.00;71.00;;;;;;6090981;23;20232;-71
2023/08/14 07:25:32;;;;;;;7.68;2.08;;;20.00;71.40;;;;;;6094884;23;20258;-71
2023/08/14 07:37:29;;;;;;;7.93;2.40;;;20.00;71.20;;;;;;6008991;23;20202;-71
2023/08/14 07:39:58;;;;;;;11.27;3.40;;;20.00;71.30;;;;;;6111402;23;20190;-71
2023/08/14 07:42:25;;;;;;;8.43;2.60;;;20.00;71.50;;;;;;6126559;23;20198;-71
2023/08/14 07:45:03;;;;;;;;;;;;;;;;;;;;;
2023/08/14 07:51:11;;;;;;;9.93;2.60;;;20.10;71.50;;;;;;6037097;23;20191;-71
2023/08/14 07:53:52;;;;;;;10.35;2.85;;;20.00;71.50;;;;;;6036897;23;20203;-71
2023/08/14 08:47:38;;;;;;;9.05;2.67;;;20.00;72.80;;;;;;5842260;24;20269;-69
2023/08/14 08:53:12;;;;;;;10.23;2.90;;;20.00;73.00;;;;;;5920556;24;20246;-69
2023/08/14 08:55:45;;;;;;;13.73;2.97;;;20.00;73.00;;;;;;5816860;24;20187;-69
2023/08/14 08:58:25;;;;;;;10.45;3.50;;;20.00;73.30;;;;;;5962294;23;20271;-69
2023/08/14 09:00:55;;;;;;;8.75;2.70;;;20.00;73.60;;;;;;6007244;23;20185;-69
2023/08/14 09:06:57;;;;;;;11.02;2.85;;;20.00;73.70;;;;;;6058655;23;20201;-69
2023/08/14 09:13:07;;;;;;;;;;;;;;;;;;;;;
2023/08/14 09:15:55;;;;;;;;;;;;;;;;;;;;;
2023/08/14 09:18:25;;;;;;;12.60;2.85;;;20.00;73.50;;;;;;5937748;23;20280;-69
2023/08/14 09:21:07;;;;;;;;;;;;;;;;;;;;;
2023/08/14 09:24:38;;;;;;;14.25;3.00;;;20.00;73.50;;;;;;6033212;23;20519;-69
2023/08/14 10:15:37;;;;;;;;;;;;;;;;;;;;;
2023/08/14 10:28:45;;;;;;;12.00;3.70;;;20.10;72.80;;;;;;5712306;25;20710;-69
2023/08/14 10:31:44;;;;;;;;;;;;;;;;;;;;;
2023/08/14 10:40:30;;;;;;;11.60;3.25;;;20.10;71.80;;;;;;5869482;24;20190;-69
2023/08/14 10:42:58;;;;;;;11.27;3.63;;;20.10;72.00;;;;;;5935598;24;20207;-69
2023/08/14 10:57:57;;;;;;;19.05;3.90;;;20.10;72.90;;;;;;5923138;24;20206;-69
2023/08/14 11:00:36;;;;;;;;;;;;;;;;;;;;;
2023/08/14 11:03:37;;;;;;;14.80;3.80;;;20.20;73.10;;;;;;5940766;23;20256;-69
2023/08/14 11:17:10;;;;;;;8.48;3.10;;;20.20;73.60;;;;;;5869401;24;20170;-69
2023/08/14 11:22:57;;;;;;;12.95;3.47;;;20.20;74.40;;;;;;5858470;24;20216;-69
2023/08/14 11:29:09;;;;;;;13.82;3.90;;;20.20;74.90;;;;;;5789416;24;20283;-69
2023/08/14 11:35:06;;;;;;;17.30;3.63;;;20.20;75.20;;;;;;5843851;24;20707;-68
2023/08/14 11:37:33;;;;;;;17.63;3.25;;;20.20;75.60;;;;;;5869390;24;20184;-69
2023/08/14 11:47:19;;;;;;;12.65;3.22;;;20.20;76.10;;;;;;5871968;24;20229;-69
2023/08/14 11:53:22;;;;;;;10.25;3.25;;;20.30;76.30;;;;;;5913637;24;20189;-69
2023/08/14 11:58:51;;;;;;;15.85;4.47;;;20.30;76.40;;;;;;5978872;24;20231;-69
2023/08/14 12:01:18;;;;;;;14.27;3.45;;;20.30;76.30;;;;;;5980201;24;20627;-69
2023/08/14 12:03:47;;;;;;;12.10;3.33;;;20.30;76.30;;;;;;5980619;24;20218;-69
2023/08/14 12:06:14;;;;;;;12.40;3.80;;;20.30;76.10;;;;;;6032242;23;20208;-68
2023/08/14 12:08:41;;;;;;;9.57;3.03;;;20.30;75.80;;;;;;6036899;23;20244;-69
2023/08/14 12:11:09;;;;;;;9.95;3.20;;;20.30;75.70;;;;;;6037019;23;20704;-69
2023/08/14 12:13:36;;;;;;;11.02;2.92;;;20.30;75.70;;;;;;6093235;23;20221;-69
2023/08/14 12:16:07;;;;;;;11.32;3.15;;;20.30;75.70;;;;;;6156246;23;20168;-69
2023/08/14 12:18:35;;;;;;;10.55;3.50;;;20.30;75.90;;;;;;6155998;23;20264;-69
2023/08/14 12:21:02;;;;;;;14.82;3.22;;;20.30;76.20;;;;;;6156078;23;20208;-68
2023/08/14 12:23:29;;;;;;;11.95;3.22;;;20.30;76.30;;;;;;6157189;23;20212;-69
2023/08/14 12:25:57;;;;;;;11.32;3.20;;;20.30;76.20;;;;;;6155957;23;20717;-69
2023/08/14 12:28:26;;;;;;;15.95;3.40;;;20.30;76.10;;;;;;6155735;23;20233;-69
2023/08/14 12:30:53;;;;;;;13.20;3.13;;;20.30;76.00;;;;;;6155704;23;20162;-67
2023/08/14 12:33:20;;;;;;;12.25;3.65;;;20.30;75.90;;;;;;6155743;23;20165;-69
2023/08/14 12:35:47;;;;;;;10.13;3.17;;;20.40;75.90;;;;;;6155895;23;20193;-69
2023/08/14 12:38:13;;;;;;;5.32;2.55;;;20.40;76.20;;;;;;6155492;23;20665;-68
2023/08/14 12:40:41;;;;;;;9.48;3.17;;;20.30;75.90;;;;;;6155342;23;20249;-69
2023/08/14 12:43:07;;;;;;;11.75;3.15;;;20.40;76.40;;;;;;6155745;23;20161;-68
2023/08/14 12:45:36;;;;;;;10.73;2.90;;;20.40;76.50;;;;;;6156095;23;20190;-69
2023/08/14 12:48:03;;;;;;;11.57;3.35;;;20.40;75.90;;;;;;6155710;23;20589;-69
2023/08/14 12:50:29;;;;;;;10.35;2.90;;;20.40;75.90;;;;;;6155935;23;20229;-69
2023/08/14 12:52:56;;;;;;;7.68;3.22;;;20.50;76.00;;;;;;6155548;23;20252;-69
2023/08/14 12:55:23;;;;;;;11.27;3.30;;;20.50;76.00;;;;;;6155195;23;20268;-69
2023/08/14 12:57:50;;;;;;;12.80;3.67;;;20.50;75.90;;;;;;6155644;23;20573;-70
2023/08/14 13:00:18;;;;;;;10.82;3.13;;;20.50;75.90;;;;;;6156395;23;20268;-72
2023/08/14 13:02:46;;;;;;;12.27;3.05;;;20.50;75.90;;;;;;6155739;23;20509;-75
2023/08/14 13:05:13;;;;;;;11.63;3.35;;;20.50;75.70;;;;;;6155892;23;20189;-75
2023/08/14 13:07:40;;;;;;;8.40;2.50;;;20.50;75.70;;;;;;6154991;23;20252;-75
2023/08/14 13:10:08;;;;;;;8.98;2.72;;;20.50;75.60;;;;;;6155730;23;20202;-75
2023/08/14 13:12:36;;;;;;;7.97;2.85;;;20.50;75.50;;;;;;6154992;23;20166;-70
2023/08/14 13:15:18;;;;;;;8.95;3.13;;;20.50;75.40;;;;;;6155820;23;20201;-75
2023/08/14 13:17:57;;;;;;;;;;;;;;;;;;;;;
2023/08/14 13:27:32;;;;;;;6.20;2.30;;;20.60;75.10;;;;;;6088380;23;20186;-69
2023/08/14 13:30:42;;;;;;;7.80;2.75;;;20.60;75.00;;;;;;6036800;23;20212;-68
2023/08/14 13:36:42;;;;;;;9.70;2.50;;;20.60;74.80;;;;;;6027145;23;20180;-68
2023/08/14 13:39:16;;;;;;;10.65;3.33;;;20.70;74.80;;;;;;6035970;23;20293;-69
2023/08/14 13:41:43;;;;;;;9.20;2.38;;;20.60;74.60;;;;;;6036296;23;20259;-68
2023/08/14 13:44:11;;;;;;;8.43;2.60;;;20.70;74.50;;;;;;6037400;23;20200;-69
2023/08/14 13:46:41;;;;;;;9.68;2.92;;;20.70;74.30;;;;;;6036050;23;20252;-69
2023/08/14 13:49:09;;;;;;;8.55;2.47;;;20.60;74.10;;;;;;6035950;23;20253;-68
2023/08/14 13:51:47;;;;;;;;;;;;;;;;;;;;;
2023/08/14 14:15:24;;;;;;;10.77;3.17;;;20.70;73.60;;;;;;6154825;23;20303;-68
2023/08/14 14:21:06;;;;;;;8.23;3.00;;;20.70;73.40;;;;;;6064924;23;20199;-68
2023/08/14 14:47:22;;;;;;;11.85;2.55;;;20.70;73.00;;;;;;5860701;24;20195;-68
2023/08/14 14:49:55;;;;;;;11.35;3.00;;;20.70;73.30;;;;;;5899717;24;20212;-68
2023/08/14 15:32:15;;;;;;;10.07;2.92;;;20.80;72.80;;;;;;5686016;24;20192;-68
2023/08/14 15:34:53;;;;;;;;;;;;;;;;;;;;;
2023/08/14 15:41:33;;;;;;;;;;;;;;;;;;;;;
2023/08/14 15:47:28;;;;;;;10.38;3.00;;;20.80;73.20;;;;;;5722060;24;20189;-68
2023/08/14 15:49:57;;;;;;;7.05;2.55;;;20.80;73.60;;;;;;5818621;24;20230;-68
2023/08/14 15:52:37;;;;;;;11.52;3.10;;;20.80;73.70;;;;;;5889128;24;20282;-68
2023/08/14 15:55:04;;;;;;;14.05;2.85;;;20.70;73.80;;;;;;5953474;23;20195;-67
2023/08/14 15:57:32;;;;;;;9.70;2.97;;;20.80;74.20;;;;;;6037053;23;20209;-65
2023/08/14 16:07:08;;;;;;;8.13;2.70;;;20.70;74.20;;;;;;5872381;24;20192;-68
2023/08/14 16:16:27;;;;;;;11.38;3.40;;;20.70;74.60;;;;;;5843643;24;20216;-68
2023/08/14 16:22:38;;;;;;;6.35;3.00;;;20.70;75.00;;;;;;5795696;24;20993;-67
2023/08/14 17:04:31;;;;;;;;;;;;;;;;;;;;;
2023/08/14 18:18:33;;;;;;;5.78;2.60;;;20.50;76.90;;;;;;5872937;24;20720;-68
2023/08/14 18:21:12;;;;;;;7.88;2.83;;;20.50;77.00;;;;;;5940001;24;20214;-68
2023/08/14 18:23:39;;;;;;;5.07;2.40;;;20.50;77.20;;;;;;5985575;23;20230;-68
2023/08/14 18:26:15;;;;;;;6.40;2.70;;;20.50;77.30;;;;;;6063463;23;20207;-67
2023/08/14 18:28:42;;;;;;;10.07;2.85;;;20.50;77.40;;;;;;6141268;23;20223;-67
2023/08/14 18:31:15;;;;;;;5.53;2.63;;;20.50;77.30;;;;;;6154980;23;20191;-69
2023/08/14 18:33:43;;;;;;;4.97;2.35;;;20.50;77.60;;;;;;6154274;23;20177;-68
2023/08/14 18:37:00;;;;;;;5.78;2.67;;;20.50;77.60;;;;;;6154527;23;20577;-68
2023/08/14 18:43:02;;;;;;;;;;;;;;;;;;;;;
2023/08/14 18:45:31;;;;;;;4.95;2.40;;;20.50;77.60;;;;;;5993560;23;20273;-75
2023/08/14 18:48:38;;;;;;;;;;;;;;;;;;;;;
2023/08/14 19:04:43;;;;;;;4.50;2.30;;;20.50;77.70;;;;;;5953577;23;20205;-75
2023/08/14 19:07:26;;;;;;;4.70;1.88;;;20.50;77.60;;;;;;5951726;24;20175;-75
2023/08/14 19:19:27;;;;;;;4.65;1.55;;;20.40;77.20;;;;;;5978588;23;20209;-75
2023/08/14 19:21:55;;;;;;;4.15;1.60;;;20.40;77.10;;;;;;6158163;23;20220;-75
2023/08/14 19:24:22;;;;;;;2.22;1.60;;;20.40;76.90;;;;;;6156898;23;20189;-75
2023/08/14 19:26:50;;;;;;;2.22;1.40;;;20.40;76.80;;;;;;6157083;23;20173;-74
2023/08/14 19:29:17;;;;;;;1.50;1.08;;;20.40;76.70;;;;;;6156696;23;20204;-75
2023/08/14 19:31:44;;;;;;;5.40;1.50;;;20.30;76.60;;;;;;6156192;23;20166;-74
2023/08/14 19:34:12;;;;;;;3.42;1.33;;;20.40;76.60;;;;;;6156064;23;20712;-74
2023/08/14 19:36:38;;;;;;;2.95;1.17;;;20.40;77.30;;;;;;6156604;23;20630;-74
2023/08/14 19:39:07;;;;;;;1.40;1.20;;;20.40;76.50;;;;;;6156391;23;20245;-73
2023/08/14 19:41:34;;;;;;;1.20;1.10;;;20.40;76.50;;;;;;6156220;23;20669;-73
2023/08/14 19:44:03;;;;;;;1.20;0.90;;;20.40;76.40;;;;;;6156486;23;20165;-72
2023/08/14 19:46:30;;;;;;;1.95;1.27;;;20.40;76.40;;;;;;6156417;23;20216;-72
2023/08/14 19:48:57;;;;;;;1.58;1.15;;;20.40;76.50;;;;;;6156424;23;20193;-71
2023/08/14 19:51:24;;;;;;;1.55;1.30;;;20.40;76.40;;;;;;6156352;23;20290;-69
2023/08/14 19:53:51;;;;;;;2.90;1.30;;;20.40;76.30;;;;;;6155961;23;20193;-69
2023/08/14 19:56:20;;;;;;;1.92;1.40;;;20.40;76.40;;;;;;6156450;23;20240;-68
2023/08/14 19:58:46;;;;;;;2.30;1.10;;;20.40;76.30;;;;;;6156351;23;20242;-69
2023/08/14 20:01:13;;;;;;;1.73;0.90;;;20.40;76.20;;;;;;6156611;23;20276;-69
2023/08/14 20:03:42;;;;;;;2.20;1.10;;;20.40;76.20;;;;;;6156244;23;20193;-69
2023/08/14 20:06:10;;;;;;;2.78;1.20;;;20.40;76.20;;;;;;6156228;23;20190;-69
2023/08/14 20:08:37;;;;;;;2.00;1.27;;;20.40;76.20;;;;;;6156270;23;20248;-69
2023/08/14 20:11:04;;;;;;;1.52;1.20;;;20.40;76.10;;;;;;6156717;23;20213;-69
2023/08/14 20:13:33;;;;;;;3.42;1.00;;;20.40;76.10;;;;;;6156129;23;20193;-69
2023/08/14 20:16:00;;;;;;;1.98;1.30;;;20.40;76.00;;;;;;6156250;23;20197;-69
2023/08/14 20:18:29;;;;;;;2.33;1.10;;;20.40;76.00;;;;;;6156144;23;20169;-68
2023/08/14 20:20:56;;;;;;;5.10;1.65;;;20.40;76.00;;;;;;6155609;23;20237;-69
2023/08/14 20:23:23;;;;;;;3.05;1.33;;;20.40;75.90;;;;;;6156325;23;20197;-69
2023/08/14 20:25:51;;;;;;;2.83;1.20;;;20.40;75.80;;;;;;6158570;23;20196;-69
2023/08/14 20:28:18;;;;;;;4.13;1.23;;;20.40;75.70;;;;;;6156089;23;20168;-69
2023/08/14 20:30:46;;;;;;;2.78;1.60;;;20.40;76.40;;;;;;6156119;23;20252;-69
2023/08/14 20:33:14;;;;;;;4.70;1.45;;;20.40;75.60;;;;;;6156272;23;20245;-69
2023/08/14 20:35:42;;;;;;;2.83;1.27;;;20.40;75.50;;;;;;6156136;23;20197;-69
2023/08/14 20:38:09;;;;;;;3.65;1.48;;;20.40;75.50;;;;;;6155233;23;20260;-69
2023/08/14 20:40:38;;;;;;;2.70;1.50;;;20.40;75.40;;;;;;6156119;23;20216;-69
2023/08/14 20:43:10;;;;;;;1.60;1.30;;;20.40;75.40;;;;;;6155884;23;20190;-69
2023/08/14 20:45:37;;;;;;;3.47;1.48;;;20.40;75.30;;;;;;6156047;23;20193;-69
2023/08/14 20:48:07;;;;;;;2.58;1.30;;;20.30;75.10;;;;;;6155581;23;20192;-69
2023/08/14 20:50:34;;;;;;;6.43;1.77;;;20.40;75.20;;;;;;6155937;23;20205;-69
2023/08/14 20:53:01;;;;;;;1.77;1.40;;;20.40;75.10;;;;;;6155453;23;20212;-69
2023/08/14 20:55:28;;;;;;;2.25;1.35;;;20.30;74.90;;;;;;6155920;23;20221;-69
2023/08/14 20:57:55;;;;;;;3.67;1.50;;;20.40;75.00;;;;;;6155439;23;20245;-58
2023/08/14 21:00:22;;;;;;;4.78;1.98;;;20.40;74.90;;;;;;6155882;23;20277;-69
2023/08/14 21:02:59;;;;;;;6.32;1.60;;;20.30;74.70;;;;;;6155617;23;20241;-68
2023/08/14 21:05:53;;;;;;;3.88;1.63;;;20.30;74.70;;;;;;6155914;23;20189;-69
2023/08/14 21:08:24;;;;;;;7.18;1.85;;;20.30;74.50;;;;;;6108954;23;20630;-68
2023/08/14 21:10:51;;;;;;;4.13;2.00;;;20.30;74.50;;;;;;6155697;23;20237;-69
2023/08/14 21:13:39;;;;;;;3.97;1.50;;;20.30;74.40;;;;;;6155602;23;20161;-69
2023/08/14 21:26:03;;;;;;;4.50;1.50;;;20.30;75.10;;;;;;6116669;23;20205;-68
2023/08/14 21:32:09;;;;;;;6.65;1.77;;;20.30;74.30;;;;;;5967228;23;20188;-69
2023/08/14 21:38:08;;;;;;;;;;;;;;;;;;;;;
2023/08/14 22:14:02;;;;;;;3.78;1.52;;;20.20;73.50;;;;;;5060568;27;1448863;-67
